createdAt,value
2022-12-27T00:01:11.425Z,92.00
2022-12-27T00:03:37.896Z,91.71
2022-12-27T00:06:15.476Z,91.10
2022-12-27T00:08:43.346Z,91.18
2022-12-27T00:11:17.633Z,91.55
2022-12-27T00:13:44.680Z,90.69
2022-12-27T00:16:14.153Z,90.78
2022-12-27T00:18:41.041Z,90.79
2022-12-27T00:21:10.442Z,90.68
2022-12-27T00:23:40.856Z,90.23
2022-12-27T00:26:18.138Z,90.96
2022-12-27T00:28:45.125Z,90.61
2022-12-27T00:31:12.840Z,89.96
2022-12-27T00:33:41.127Z,89.83
2022-12-27T00:36:11.254Z,89.30
2022-12-27T00:38:37.661Z,89.34
2022-12-27T00:41:05.076Z,89.11
2022-12-27T00:43:31.810Z,89.37
2022-12-27T00:45:58.344Z,89.74
2022-12-27T00:48:25.588Z,89.70
2022-12-27T00:51:00.748Z,90.64
2022-12-27T00:53:29.112Z,90.81
2022-12-27T00:55:55.809Z,91.60
2022-12-27T00:58:22.228Z,91.28
2022-12-27T01:00:48.895Z,90.86
2022-12-27T01:03:16.493Z,91.06
2022-12-27T01:05:44.588Z,90.56
2022-12-27T01:08:11.172Z,90.35
2022-12-27T01:10:40.556Z,90.36
2022-12-27T01:13:07.773Z,90.47
2022-12-27T01:15:34.196Z,90.26
2022-12-27T01:18:01.042Z,89.14
2022-12-27T01:20:27.915Z,89.49
2022-12-27T01:22:54.829Z,89.36
2022-12-27T01:25:21.261Z,89.03
2022-12-27T01:27:47.661Z,89.25
2022-12-27T01:30:14.102Z,89.46
2022-12-27T01:32:40.699Z,89.54
2022-12-27T01:35:07.507Z,89.29
2022-12-27T01:37:33.931Z,89.43
2022-12-27T01:40:00.330Z,89.27
2022-12-27T01:42:46.225Z,89.65
2022-12-27T01:45:18.153Z,89.41
2022-12-27T01:47:54.278Z,89.52
2022-12-27T01:50:35.810Z,89.48
2022-12-27T01:53:22.347Z,89.86
2022-12-27T01:55:53.809Z,89.68
2022-12-27T01:58:23.454Z,90.41
2022-12-27T02:00:51.152Z,90.61
2022-12-27T02:03:23.623Z,90.24
2022-12-27T02:05:51.175Z,89.85
2022-12-27T02:08:48.560Z,89.49
2022-12-27T02:11:16.377Z,90.17
2022-12-27T02:13:45.792Z,90.20
2022-12-27T02:16:17.616Z,89.73
2022-12-27T02:18:44.841Z,90.59
2022-12-27T02:21:29.290Z,90.82
2022-12-27T02:24:31.716Z,90.56
2022-12-27T02:27:17.227Z,90.86
2022-12-27T02:29:59.386Z,91.07
2022-12-27T02:32:37.601Z,91.44
2022-12-27T02:35:33.295Z,91.16
2022-12-27T02:38:09.196Z,91.47
2022-12-27T02:40:58.329Z,91.42
2022-12-27T02:43:44.958Z,91.97
2022-12-27T02:46:48.853Z,91.21
2022-12-27T02:49:47.371Z,91.24
2022-12-27T02:53:00.473Z,91.34
2022-12-27T02:55:31.556Z,91.05
2022-12-27T02:58:29.050Z,91.57
2022-12-27T03:01:27.273Z,91.45
2022-12-27T03:04:32.540Z,91.23
2022-12-27T03:07:28.604Z,91.62
2022-12-27T03:10:39.674Z,92.20
2022-12-27T03:13:33.856Z,92.30
2022-12-27T03:16:18.023Z,91.62
2022-12-27T03:18:57.197Z,91.83
2022-12-27T03:21:50.174Z,91.77
2022-12-27T03:24:39.592Z,91.62
2022-12-27T03:27:30.859Z,91.37
2022-12-27T03:30:19.275Z,91.59
2022-12-27T03:33:11.846Z,91.94
2022-12-27T03:36:15.299Z,92.03
2022-12-27T03:38:55.044Z,92.81
2022-12-27T03:41:46.107Z,92.38
2022-12-27T03:44:26.032Z,92.81
2022-12-27T03:47:00.497Z,92.69
2022-12-27T03:49:50.534Z,92.81
2022-12-27T03:52:25.963Z,92.81
2022-12-27T03:54:53.669Z,93.05
2022-12-27T03:57:23.497Z,93.02
2022-12-27T03:59:50.312Z,93.41
2022-12-27T04:02:16.845Z,93.57
2022-12-27T04:04:43.487Z,93.35
2022-12-27T04:07:13.369Z,93.96
2022-12-27T04:09:58.089Z,93.63
2022-12-27T04:12:43.535Z,94.66
2022-12-27T04:15:29.225Z,94.10
2022-12-27T04:18:14.385Z,93.82
2022-12-27T04:20:59.689Z,93.67
2022-12-27T04:23:44.860Z,93.57
2022-12-27T04:26:29.746Z,93.65
2022-12-27T04:29:14.837Z,94.30
2022-12-27T04:32:00.035Z,93.74
2022-12-27T04:34:45.223Z,93.89
2022-12-27T04:37:17.405Z,93.98
2022-12-27T04:40:05.084Z,94.20
2022-12-27T04:42:50.016Z,94.69
2022-12-27T04:45:34.915Z,94.89
2022-12-27T04:48:20.414Z,94.35
2022-12-27T04:51:05.216Z,95.09
2022-12-27T04:53:51.306Z,94.92
2022-12-27T04:56:17.709Z,94.97
2022-12-27T04:59:04.153Z,94.92
2022-12-27T05:01:49.242Z,95.06
2022-12-27T05:04:15.849Z,94.87
2022-12-27T05:06:42.351Z,95.00
2022-12-27T05:09:27.242Z,94.56
2022-12-27T05:12:19.496Z,94.91
2022-12-27T05:14:46.819Z,94.89
2022-12-27T05:17:13.409Z,94.98
2022-12-27T05:19:39.961Z,94.98
2022-12-27T05:22:25.234Z,94.86
2022-12-27T05:25:10.531Z,94.78
2022-12-27T05:27:37.116Z,94.97
2022-12-27T05:30:04.021Z,94.61
2022-12-27T05:32:30.438Z,94.72
2022-12-27T05:34:56.824Z,94.88
2022-12-27T05:37:23.247Z,94.91
2022-12-27T05:39:49.651Z,94.79
2022-12-27T05:42:16.648Z,95.44
2022-12-27T05:44:43.252Z,95.32
2022-12-27T05:47:09.953Z,95.50
2022-12-27T05:49:36.421Z,95.65
2022-12-27T05:52:02.841Z,96.23
2022-12-27T05:54:29.246Z,96.29
2022-12-27T05:56:55.620Z,96.03
2022-12-27T05:59:22.054Z,96.29
2022-12-27T06:01:48.581Z,95.58
2022-12-27T06:04:15.796Z,95.08
2022-12-27T06:06:42.403Z,95.24
2022-12-27T06:09:08.843Z,95.32
2022-12-27T06:11:35.352Z,95.41
2022-12-27T06:14:02.688Z,95.34
2022-12-27T06:16:29.300Z,95.30
2022-12-27T06:18:55.711Z,95.61
2022-12-27T06:21:22.108Z,95.92
2022-12-27T06:23:49.490Z,95.82
2022-12-27T06:26:24.724Z,95.53
2022-12-27T06:28:51.878Z,95.34
2022-12-27T06:31:20.016Z,95.84
2022-12-27T06:33:47.726Z,95.73
2022-12-27T06:36:16.653Z,95.84
2022-12-27T06:38:43.946Z,96.27
2022-12-27T06:41:12.393Z,95.93
2022-12-27T06:43:39.692Z,96.09
2022-12-27T06:46:15.221Z,95.83
2022-12-27T06:48:47.975Z,95.97
2022-12-27T06:51:16.261Z,96.01
2022-12-27T06:53:46.009Z,96.24
2022-12-27T06:56:16.794Z,95.79
2022-12-27T06:58:43.970Z,96.00
2022-12-27T07:01:13.514Z,96.55
2022-12-27T07:03:40.473Z,96.22
2022-12-27T07:06:08.765Z,96.17
2022-12-27T07:08:36.011Z,96.26
2022-12-27T07:11:06.308Z,96.02
2022-12-27T07:13:38.567Z,96.24
2022-12-27T07:16:09.412Z,96.34
2022-12-27T07:18:37.007Z,96.79
2022-12-27T07:21:07.585Z,96.82
2022-12-27T07:23:34.365Z,97.09
2022-12-27T07:26:05.547Z,96.83
2022-12-27T07:28:32.652Z,96.56
2022-12-27T07:30:59.454Z,96.90
2022-12-27T07:33:26.027Z,97.14
2022-12-27T07:36:00.227Z,96.58
2022-12-27T07:38:27.735Z,96.94
2022-12-27T07:40:54.849Z,96.99
2022-12-27T07:43:21.362Z,96.78
2022-12-27T07:45:47.912Z,97.45
2022-12-27T07:48:14.343Z,97.11
2022-12-27T07:50:41.010Z,96.75
2022-12-27T07:53:07.700Z,97.38
2022-12-27T07:55:34.163Z,97.38
2022-12-27T07:58:00.600Z,97.20
2022-12-27T08:00:29.401Z,96.99
2022-12-27T08:02:55.985Z,97.39
2022-12-27T08:05:27.419Z,97.39
2022-12-27T08:07:54.522Z,97.40
2022-12-27T08:10:20.901Z,97.19
2022-12-27T08:12:47.453Z,97.66
2022-12-27T08:15:13.905Z,98.02
2022-12-27T08:17:40.480Z,97.41
2022-12-27T08:20:07.278Z,98.04
2022-12-27T08:22:33.667Z,97.95
2022-12-27T08:25:00.084Z,97.84
2022-12-27T08:27:26.815Z,97.85
2022-12-27T08:29:53.226Z,97.68
2022-12-27T08:32:19.685Z,97.51
2022-12-27T08:34:46.113Z,97.34
2022-12-27T08:37:12.808Z,97.40
2022-12-27T08:39:39.806Z,97.88
2022-12-27T08:42:06.309Z,97.46
2022-12-27T08:44:32.712Z,97.47
2022-12-27T08:46:59.494Z,97.69
2022-12-27T08:49:26.038Z,97.10
2022-12-27T08:51:52.425Z,97.31
2022-12-27T08:54:18.840Z,96.49
2022-12-27T08:56:45.408Z,97.01
2022-12-27T08:59:11.925Z,96.02
2022-12-27T09:01:38.514Z,96.52
2022-12-27T09:04:05.016Z,95.98
2022-12-27T09:06:31.464Z,95.91
2022-12-27T09:08:59.594Z,95.51
2022-12-27T09:11:32.251Z,96.02
2022-12-27T09:14:04.996Z,95.73
2022-12-27T09:16:34.011Z,96.81
2022-12-27T09:19:00.476Z,96.03
2022-12-27T09:21:31.723Z,95.79
2022-12-27T09:23:58.375Z,95.15
2022-12-27T09:26:29.075Z,94.82
2022-12-27T09:28:56.557Z,94.19
2022-12-27T09:31:24.459Z,94.66
2022-12-27T09:33:52.233Z,94.46
2022-12-27T09:36:21.424Z,93.81
2022-12-27T09:38:49.136Z,93.91
2022-12-27T09:44:52.978Z,94.49
2022-12-27T09:47:33.019Z,94.32
2022-12-27T09:50:10.195Z,93.84
2022-12-27T09:52:45.861Z,93.51
2022-12-27T09:55:29.846Z,93.63
2022-12-27T09:58:11.392Z,93.12
2022-12-27T10:00:40.026Z,93.33
2022-12-27T10:03:12.952Z,92.97
2022-12-27T10:05:43.926Z,92.97
2022-12-27T10:08:49.190Z,92.96
2022-12-27T10:11:37.182Z,92.64
2022-12-27T10:14:42.511Z,92.86
2022-12-27T10:17:27.414Z,92.82
2022-12-27T10:20:11.901Z,92.92
2022-12-27T10:22:47.183Z,92.66
2022-12-27T10:25:17.531Z,93.73
2022-12-27T10:27:46.687Z,94.44
2022-12-27T10:30:19.853Z,94.46
2022-12-27T10:32:47.633Z,95.38
2022-12-27T10:35:17.154Z,95.35
2022-12-27T10:37:45.494Z,95.07
2022-12-27T10:40:19.620Z,93.75
2022-12-27T10:42:58.233Z,92.33
2022-12-27T10:45:39.340Z,92.31
2022-12-27T10:48:22.372Z,91.39
2022-12-27T10:50:51.234Z,92.88
2022-12-27T10:53:34.372Z,92.81
2022-12-27T10:56:24.779Z,93.18
2022-12-27T10:58:58.806Z,94.22
2022-12-27T11:01:32.400Z,94.78
2022-12-27T11:04:26.038Z,94.54
2022-12-27T11:06:59.805Z,94.29
2022-12-27T11:09:28.043Z,94.01
2022-12-27T11:12:16.236Z,94.28
2022-12-27T11:15:04.754Z,94.18
2022-12-27T11:17:43.702Z,95.31
2022-12-27T11:20:12.076Z,95.25
2022-12-27T11:22:51.054Z,95.49
2022-12-27T11:25:18.001Z,96.15
2022-12-27T11:27:48.048Z,96.20
2022-12-27T11:30:33.618Z,96.40
2022-12-27T11:33:24.541Z,95.90
2022-12-27T11:35:54.301Z,96.40
2022-12-27T11:38:27.916Z,94.72
2022-12-27T11:41:03.909Z,93.84
2022-12-27T11:43:40.342Z,93.51
2022-12-27T11:46:30.463Z,93.67
2022-12-27T11:49:02.668Z,92.84
2022-12-27T11:51:48.148Z,93.29
2022-12-27T11:54:40.627Z,93.97
2022-12-27T11:57:45.535Z,94.50
2022-12-27T12:00:18.624Z,93.00
2022-12-27T12:03:37.064Z,93.26
2022-12-27T12:06:50.398Z,92.65
2022-12-27T12:09:32.457Z,91.59
2022-12-27T12:12:11.728Z,91.97
2022-12-27T12:14:56.760Z,91.14
2022-12-27T12:17:43.655Z,91.23
2022-12-27T12:20:25.481Z,91.97
2022-12-27T12:23:19.473Z,90.90
2022-12-27T12:26:21.227Z,90.26
2022-12-27T12:29:02.691Z,90.10
2022-12-27T12:31:53.126Z,90.33
2022-12-27T12:34:34.614Z,89.18
2022-12-27T12:37:14.613Z,89.72
2022-12-27T12:40:12.959Z,89.05
2022-12-27T12:42:54.310Z,88.39
2022-12-27T12:45:43.065Z,88.87
2022-12-27T12:48:20.407Z,89.29
2022-12-27T12:50:50.479Z,89.02
2022-12-27T12:53:48.956Z,88.62
2022-12-27T12:56:41.885Z,88.06
2022-12-27T13:00:06.830Z,89.07
2022-12-27T13:03:09.967Z,87.66
2022-12-27T13:06:04.456Z,86.86
2022-12-27T13:08:35.532Z,87.45
2022-12-27T13:11:18.779Z,87.47
2022-12-27T13:14:14.178Z,86.16
2022-12-27T13:16:52.630Z,85.90
2022-12-27T13:19:43.873Z,85.33
2022-12-27T13:22:43.880Z,84.83
2022-12-27T13:25:12.989Z,84.55
2022-12-27T13:27:49.595Z,85.37
2022-12-27T13:30:33.833Z,84.36
2022-12-27T13:33:06.003Z,85.22
2022-12-27T13:35:43.327Z,85.41
2022-12-27T13:38:15.918Z,84.87
2022-12-27T13:41:10.841Z,84.49
2022-12-27T13:43:48.880Z,83.98
2022-12-27T13:46:43.332Z,84.21
2022-12-27T13:49:37.010Z,83.74
2022-12-27T13:52:21.738Z,84.18
2022-12-27T13:55:02.568Z,85.02
2022-12-27T13:57:53.773Z,85.82
2022-12-27T14:00:22.136Z,86.57
2022-12-27T14:03:00.713Z,87.26
2022-12-27T14:05:55.430Z,87.08
2022-12-27T14:08:33.922Z,86.93
2022-12-27T14:11:01.952Z,86.82
2022-12-27T14:13:34.125Z,87.74
2022-12-27T14:16:20.240Z,88.34
2022-12-27T14:19:16.003Z,87.97
2022-12-27T14:21:45.719Z,88.21
2022-12-27T14:24:45.952Z,88.63
2022-12-27T14:27:33.550Z,88.76
2022-12-27T14:30:21.950Z,89.19
2022-12-27T14:33:16.319Z,89.55
2022-12-27T14:36:10.904Z,89.75
2022-12-27T14:38:57.347Z,89.46
2022-12-27T14:41:23.687Z,89.63
2022-12-27T14:44:29.718Z,89.76
2022-12-27T14:47:11.591Z,90.08
2022-12-27T14:49:57.003Z,90.72
2022-12-27T14:52:35.716Z,91.11
2022-12-27T14:55:27.333Z,90.61
2022-12-27T14:57:59.511Z,90.83
2022-12-27T15:00:29.860Z,90.84
2022-12-27T15:03:02.929Z,91.22
2022-12-27T15:05:39.467Z,92.27
2022-12-27T15:08:27.236Z,92.94
2022-12-27T15:11:18.936Z,93.09
2022-12-27T15:14:01.009Z,93.23
2022-12-27T15:16:45.797Z,93.28
2022-12-27T15:19:37.870Z,93.83
2022-12-27T15:22:27.057Z,93.86
2022-12-27T15:25:03.896Z,94.24
2022-12-27T15:27:35.331Z,94.06
2022-12-27T15:30:16.765Z,94.17
2022-12-27T15:33:05.388Z,94.49
2022-12-27T15:35:54.197Z,94.55
2022-12-27T15:38:54.153Z,94.97
2022-12-27T15:41:35.487Z,94.96
2022-12-27T15:44:12.945Z,95.09
2022-12-27T15:47:10.381Z,94.89
2022-12-27T15:50:17.752Z,95.45
2022-12-27T15:53:03.249Z,95.33
2022-12-27T15:55:55.348Z,95.79
2022-12-27T15:58:23.456Z,95.83
2022-12-27T16:01:20.478Z,96.21
2022-12-27T16:03:50.967Z,96.16
2022-12-27T16:06:35.643Z,96.26
2022-12-27T16:09:20.986Z,96.74
2022-12-27T16:12:35.334Z,96.23
2022-12-27T16:15:51.837Z,96.51
2022-12-27T16:18:21.351Z,96.82
2022-12-27T16:21:09.441Z,97.04
2022-12-27T16:23:37.394Z,96.97
2022-12-27T16:26:17.313Z,97.09
2022-12-27T16:28:54.255Z,97.82
2022-12-27T16:31:24.800Z,97.57
2022-12-27T16:33:53.545Z,97.83
2022-12-27T16:36:29.948Z,97.94
2022-12-27T16:39:11.865Z,97.71
2022-12-27T16:41:56.864Z,97.71
2022-12-27T16:44:26.292Z,98.28
2022-12-27T16:47:14.460Z,98.39
2022-12-27T16:50:28.504Z,98.42
2022-12-27T16:53:16.803Z,98.34
2022-12-27T16:56:22.552Z,98.52
2022-12-27T16:58:49.262Z,98.65
2022-12-27T17:01:18.725Z,98.74
2022-12-27T17:03:48.220Z,98.90
2022-12-27T17:09:10.035Z,98.86
2022-12-27T17:12:11.967Z,99.23
2022-12-27T17:14:42.052Z,98.81
2022-12-27T17:17:23.054Z,98.94
2022-12-27T17:19:55.883Z,98.87
2022-12-27T17:22:27.391Z,99.10
2022-12-27T17:24:59.162Z,99.31
2022-12-27T17:27:40.914Z,98.53
2022-12-27T17:30:19.905Z,98.53
2022-12-27T17:33:09.640Z,98.25
2022-12-27T17:35:47.689Z,98.23
2022-12-27T17:38:41.127Z,97.95
2022-12-27T17:41:47.350Z,98.27
2022-12-27T17:44:58.942Z,97.63
2022-12-27T17:47:37.077Z,97.55
2022-12-27T17:50:12.294Z,97.93
2022-12-27T17:52:57.523Z,97.06
2022-12-27T17:55:45.829Z,97.26
2022-12-27T17:58:16.051Z,97.23
2022-12-27T18:00:56.549Z,97.85
2022-12-27T18:03:26.390Z,98.04
2022-12-27T18:05:52.950Z,97.90
2022-12-27T18:08:25.128Z,97.51
2022-12-27T18:10:51.917Z,98.04
2022-12-27T18:13:20.537Z,96.91
2022-12-27T18:15:49.786Z,96.76
2022-12-27T18:18:20.887Z,96.72
2022-12-27T18:20:54.754Z,97.96
2022-12-27T18:23:21.264Z,97.57
2022-12-27T18:25:47.582Z,98.03
2022-12-27T18:28:33.074Z,98.08
2022-12-27T18:31:32.514Z,97.97
2022-12-27T18:34:20.234Z,97.71
2022-12-27T18:36:58.971Z,97.28
2022-12-27T18:39:34.787Z,97.06
2022-12-27T18:42:18.447Z,98.07
2022-12-27T18:44:56.909Z,98.13
2022-12-27T18:47:27.323Z,97.60
2022-12-27T18:50:00.762Z,97.08
2022-12-27T18:52:34.996Z,97.02
2022-12-27T18:55:12.415Z,97.05
2022-12-27T18:57:39.464Z,96.44
2022-12-27T19:00:14.988Z,95.77
2022-12-27T19:02:42.125Z,94.26
2022-12-27T19:05:20.603Z,94.24
2022-12-27T19:07:49.785Z,94.40
2022-12-27T19:10:19.694Z,94.15
2022-12-27T19:12:46.866Z,92.70
2022-12-27T19:15:18.423Z,93.50
2022-12-27T19:17:47.901Z,91.85
2022-12-27T19:20:39.987Z,91.73
2022-12-27T19:23:49.131Z,92.38
2022-12-27T19:26:15.602Z,91.98
2022-12-27T19:28:44.190Z,90.65
2022-12-27T19:31:21.759Z,91.10
2022-12-27T19:33:53.126Z,91.25
2022-12-27T19:36:44.137Z,90.14
2022-12-27T19:39:21.771Z,90.60
2022-12-27T19:41:49.510Z,90.14
2022-12-27T19:44:16.538Z,89.82
2022-12-27T19:46:43.419Z,90.29
2022-12-27T19:51:57.747Z,89.63
2022-12-27T19:54:27.285Z,89.06
2022-12-27T19:56:54.946Z,87.81
2022-12-27T19:59:24.008Z,88.63
2022-12-27T20:01:52.078Z,87.95
2022-12-27T20:04:18.873Z,88.28
2022-12-27T20:06:47.877Z,88.40
2022-12-27T20:09:19.615Z,87.67
2022-12-27T20:11:48.311Z,87.90
2022-12-27T20:14:17.332Z,87.26
2022-12-27T20:16:45.551Z,86.89
2022-12-27T20:19:15.974Z,86.77
2022-12-27T20:21:42.484Z,85.11
2022-12-27T20:24:11.068Z,84.86
2022-12-27T20:26:38.573Z,84.08
2022-12-27T20:29:05.235Z,83.71
2022-12-27T20:31:32.335Z,83.77
2022-12-27T20:33:59.276Z,83.57
2022-12-27T20:36:26.144Z,83.64
2022-12-27T20:38:52.702Z,83.90
2022-12-27T20:41:21.061Z,83.91
2022-12-27T20:43:53.026Z,83.04
2022-12-27T20:46:19.508Z,82.74
2022-12-27T20:48:46.945Z,83.55
2022-12-27T20:51:19.847Z,82.64
2022-12-27T20:53:49.027Z,82.10
2022-12-27T20:56:16.260Z,82.72
2022-12-27T20:58:43.155Z,82.48
2022-12-27T21:01:13.558Z,82.87
2022-12-27T21:03:40.784Z,82.50
2022-12-27T21:06:13.892Z,82.74
2022-12-27T21:08:46.511Z,82.80
2022-12-27T21:11:24.149Z,83.04
2022-12-27T21:13:50.627Z,81.91
2022-12-27T21:16:23.224Z,81.57
2022-12-27T21:18:50.165Z,81.01
2022-12-27T21:21:19.873Z,81.74
2022-12-27T21:23:47.443Z,81.31
2022-12-27T21:26:17.316Z,82.34
2022-12-27T21:28:45.545Z,82.15
2022-12-27T21:31:13.424Z,81.64
2022-12-27T21:33:40.336Z,81.70
2022-12-27T21:36:11.017Z,81.92
2022-12-27T21:38:37.572Z,82.88
2022-12-27T21:41:16.682Z,83.01
2022-12-27T21:43:44.334Z,83.37
2022-12-27T21:46:20.578Z,83.16
2022-12-27T21:48:48.745Z,82.32
2022-12-27T21:51:19.819Z,83.02
2022-12-27T21:53:46.957Z,81.80
2022-12-27T21:56:15.510Z,83.17
2022-12-27T21:58:43.706Z,82.63
2022-12-27T22:01:17.357Z,82.00
2022-12-27T22:03:46.286Z,82.54
2022-12-27T22:06:19.157Z,82.81
2022-12-27T22:08:49.041Z,82.33
2022-12-27T22:11:16.260Z,82.43
2022-12-27T22:13:43.976Z,82.00
2022-12-27T22:16:17.480Z,81.81
2022-12-27T22:18:45.191Z,81.25
2022-12-27T22:21:18.027Z,80.33
2022-12-27T22:23:47.203Z,79.45
2022-12-27T22:26:16.551Z,79.44
2022-12-27T22:28:43.428Z,79.53
2022-12-27T22:31:18.245Z,79.16
2022-12-27T22:33:45.197Z,80.14
2022-12-27T22:36:18.229Z,80.16
2022-12-27T22:38:49.429Z,80.58
2022-12-27T22:41:22.322Z,79.83
2022-12-27T22:43:51.292Z,79.57
2022-12-27T22:46:18.112Z,79.57
2022-12-27T22:48:49.455Z,79.36
2022-12-27T22:51:18.593Z,79.27
2022-12-27T22:53:45.290Z,78.61
2022-12-27T22:56:22.898Z,78.47
2022-12-27T22:58:49.618Z,78.64
2022-12-27T23:01:22.113Z,77.80
2022-12-27T23:03:49.295Z,77.73
2022-12-27T23:06:16.790Z,77.84
2022-12-27T23:08:44.610Z,78.27
2022-12-27T23:11:22.506Z,77.86
2022-12-27T23:13:54.672Z,77.92
2022-12-27T23:16:21.189Z,77.97
2022-12-27T23:18:47.738Z,78.73
2022-12-27T23:21:20.537Z,78.51
2022-12-27T23:23:50.606Z,78.02
2022-12-27T23:26:19.974Z,78.18
2022-12-27T23:28:47.787Z,78.37
2022-12-27T23:31:14.948Z,78.23
2022-12-27T23:33:43.231Z,77.99
2022-12-27T23:36:11.308Z,78.52
2022-12-27T23:38:37.998Z,78.64
2022-12-27T23:41:06.608Z,78.31
2022-12-27T23:43:53.790Z,77.50
2022-12-27T23:46:30.233Z,78.35
2022-12-27T23:48:58.285Z,77.93
2022-12-27T23:51:25.247Z,77.26
2022-12-27T23:53:52.388Z,77.68
2022-12-27T23:56:22.205Z,77.09
2022-12-27T23:58:50.428Z,77.32
